Pagrindinis puslapis
METAR-TAF:

METAR-TAF

Oro uostai :

Mekoryuk, Aliaska, Jungtinės Amerikos Valstijos

platuma: 60-22N, ilguma: 166-16W, Aukštis: 15 m

Dabartinis oras

Ataskaita buvo paskelbta 8 minutes, ne 07:56 UTC
Vėjas 14 kt iš Šiaurės Vakarų
Temperatūra 12°C
Drėgmė 82%
Slėgis 1010 hPa
Matomumas: 16.1 km
Apsiniaukę ne aukštis 1800 ft

METAR: PAMY 160756Z AUTO 32014KT 10SM OVC018 12/09 A2982 RMK AO2 SLP101 T01170094

Laikas: 00:04 (08:04 UTC)


TAF: trūkstamas

Orai ataskaitas ir orų prognozės (METAR, TAF).

turimą stotys yra geltonos ir raudonos taškus žemėlapyje.

Perkelti pele per norėdami pamatyti stoties vardą.

Tada spustelėkite, norėdami matyti oro stebėjimo ir prognozės.

Norėdami pakeisti žemėlapį: spustelėkite ant žalios mygtukų su juodo kryžiaus žemyn,; žalią mygtuką su brūkšneliu, jei norite nutolinti; arba žalių rodyklių gretimoms žemėlapius.


METAR-TAF: